Time,TemperatureF,DewpointF,PressureIn,WindDirection,WindDirectionDegrees,WindSpeedMPH,WindSpeedGustMPH,Humidity,HourlyPrecipIn,Conditions,Clouds,dailyrainin,SoftwareType,DateUTC
2013-01-01 00:01:00,36.1,28.6,29.86,WSW,247,3.7,-999.0,74,-99.99,,,0.00,Acu-Link.com,2013-01-01 05:01:00,
2013-01-01 00:17:00,36.1,28.6,29.86,NW,315,3.2,-999.0,74,-99.99,,,0.00,Acu-Link.com,2013-01-01 05:17:00,
2013-01-01 00:32:00,36.1,28.3,29.87,West,270,2.7,-999.0,73,-99.99,,,0.00,Acu-Link.com,2013-01-01 05:32:00,
2013-01-01 00:47:00,36.3,27.8,29.86,WSW,247,3.7,-999.0,71,-99.99,,,0.00,Acu-Link.com,2013-01-01 05:47:00,
2013-01-01 01:03:00,36.5,27.7,29.87,West,270,3.7,-999.0,70,-99.99,,,0.00,Acu-Link.com,2013-01-01 06:03:00,
2013-01-01 01:18:00,36.3,27.5,29.85,West,270,3.7,-999.0,70,-99.99,,,0.01,Acu-Link.com,2013-01-01 06:18:00,
2013-01-01 01:33:00,36.3,27.1,29.85,West,270,1.7,-999.0,69,-99.99,,,0.01,Acu-Link.com,2013-01-01 06:33:00,
2013-01-01 01:49:00,36.3,27.1,29.86,West,270,3.2,-999.0,69,-99.99,,,0.01,Acu-Link.com,2013-01-01 06:49:00,
2013-01-01 02:04:00,36.5,27.3,29.86,West,270,4.2,-999.0,69,-99.99,,,0.01,Acu-Link.com,2013-01-01 07:04:00,
2013-01-01 02:19:00,36.3,27.1,29.87,West,270,2.7,-999.0,69,-99.99,,,0.01,Acu-Link.com,2013-01-01 07:19:00,
2013-01-01 02:35:00,36.3,27.5,29.87,WNW,292,2.7,-999.0,70,-99.99,,,0.01,Acu-Link.com,2013-01-01 07:35:00,
2013-01-01 02:50:00,36.3,27.5,29.88,West,270,1.7,-999.0,70,-99.99,,,0.01,Acu-Link.com,2013-01-01 07:50:00,
2013-01-01 03:05:00,36.1,27.3,29.89,SSW,202,2.7,-999.0,70,-99.99,,,0.01,Acu-Link.com,2013-01-01 08:05:00,
2013-01-01 03:20:00,36.1,27.3,29.89,West,270,2.7,-999.0,70,-99.99,,,0.01,Acu-Link.com,2013-01-01 08:20:00,
2013-01-01 03:36:00,36.0,27.5,29.87,West,270,1.7,-999.0,71,-99.99,,,0.01,Acu-Link.com,2013-01-01 08:36:00,
2013-01-01 03:51:00,36.0,27.5,29.87,WNW,292,3.7,-999.0,71,-99.99,,,0.01,Acu-Link.com,2013-01-01 08:51:00,
2013-01-01 04:07:00,36.0,27.5,29.85,West,270,1.7,-999.0,71,-99.99,,,0.01,Acu-Link.com,2013-01-01 09:07:00,
2013-01-01 04:22:00,35.8,27.3,29.86,West,270,2.2,-999.0,71,-99.99,,,0.01,Acu-Link.com,2013-01-01 09:22:00,
2013-01-01 04:37:00,35.6,27.1,29.85,WNW,292,2.2,-999.0,71,-99.99,,,0.01,Acu-Link.com,2013-01-01 09:37:00,
2013-01-01 04:52:00,35.6,27.5,29.86,WNW,292,1.1,-999.0,72,-99.99,,,0.01,Acu-Link.com,2013-01-01 09:52:00,
2013-01-01 05:08:00,35.4,27.3,29.86,WNW,292,2.2,-999.0,72,-99.99,,,0.01,Acu-Link.com,2013-01-01 10:08:00,
2013-01-01 05:23:00,35.4,27.6,29.87,WNW,292,1.7,-999.0,73,-99.99,,,0.01,Acu-Link.com,2013-01-01 10:23:00,
2013-01-01 05:38:00,35.4,27.6,29.87,West,270,2.2,-999.0,73,-99.99,,,0.01,Acu-Link.com,2013-01-01 10:38:00,
2013-01-01 05:54:00,35.2,27.4,29.87,West,270,0.0,-999.0,73,-99.99,,,0.02,Acu-Link.com,2013-01-01 10:54:00,
2013-01-01 06:09:00,34.9,27.5,29.87,West,270,0.0,-999.0,74,-99.99,,,0.02,Acu-Link.com,2013-01-01 11:09:00,
2013-01-01 06:24:00,34.9,27.8,29.88,West,270,3.2,-999.0,75,-99.99,,,0.02,Acu-Link.com,2013-01-01 11:24:00,
2013-01-01 06:40:00,35.1,27.7,29.88,WNW,292,2.2,-999.0,74,-99.99,,,0.02,Acu-Link.com,2013-01-01 11:40:00,
2013-01-01 06:55:00,35.1,28.0,29.88,WNW,292,2.7,-999.0,75,-99.99,,,0.02,Acu-Link.com,2013-01-01 11:55:00,
2013-01-01 07:10:00,35.1,27.7,29.88,WNW,292,2.2,-999.0,74,-99.99,,,0.02,Acu-Link.com,2013-01-01 12:10:00,
2013-01-01 07:25:00,35.1,27.7,29.88,WNW,292,1.7,-999.0,74,-99.99,,,0.02,Acu-Link.com,2013-01-01 12:25:00,
2013-01-01 07:41:00,35.1,27.7,29.89,WNW,292,2.2,-999.0,74,-99.99,,,0.02,Acu-Link.com,2013-01-01 12:41:00,
2013-01-01 07:56:00,35.1,27.7,29.87,West,270,1.7,-999.0,74,-99.99,,,0.02,Acu-Link.com,2013-01-01 12:56:00,
2013-01-01 08:11:00,35.1,28.0,29.87,NNW,337,2.2,-999.0,75,-99.99,,,0.02,Acu-Link.com,2013-01-01 13:11:00,
2013-01-01 08:27:00,35.1,28.0,29.89,NNW,337,2.2,-999.0,75,-99.99,,,0.02,Acu-Link.com,2013-01-01 13:27:00,
2013-01-01 08:42:00,35.2,28.1,29.89,West,270,2.2,-999.0,75,-99.99,,,0.02,Acu-Link.com,2013-01-01 13:42:00,
2013-01-01 08:57:00,35.6,28.1,29.89,West,270,2.2,-999.0,74,-99.99,,,0.02,Acu-Link.com,2013-01-01 13:57:00,
2013-01-01 09:13:00,36.1,28.3,29.88,WNW,292,2.7,-999.0,73,-99.99,,,0.02,Acu-Link.com,2013-01-01 14:13:00,
2013-01-01 09:28:00,36.3,28.2,29.89,WNW,292,2.7,-999.0,72,-99.99,,,0.02,Acu-Link.com,2013-01-01 14:28:00,
2013-01-01 09:43:00,36.3,28.2,29.90,WNW,292,2.2,-999.0,72,-99.99,,,0.02,Acu-Link.com,2013-01-01 14:43:00,
2013-01-01 09:59:00,36.3,28.2,29.90,West,270,2.2,-999.0,72,-99.99,,,0.02,Acu-Link.com,2013-01-01 14:59:00,
2013-01-01 10:14:00,36.3,28.5,29.91,West,270,1.1,-999.0,73,-99.99,,,0.02,Acu-Link.com,2013-01-01 15:14:00,
2013-01-01 10:29:00,36.3,28.8,29.92,West,270,0.0,-999.0,74,-99.99,,,0.02,Acu-Link.com,2013-01-01 15:29:00,
2013-01-01 10:45:00,36.5,29.0,29.92,WNW,292,3.2,-999.0,74,-99.99,,,0.03,Acu-Link.com,2013-01-01 15:45:00,
2013-01-01 11:00:00,36.3,29.1,29.91,North,0,0.0,-999.0,75,-99.99,,,0.03,Acu-Link.com,2013-01-01 16:00:00,
2013-01-01 11:15:00,35.8,29.0,29.91,North,0,1.1,-999.0,76,-99.99,,,0.03,Acu-Link.com,2013-01-01 16:15:00,
2013-01-01 11:30:00,36.0,29.5,29.90,NW,315,1.1,-999.0,77,-99.99,,,0.03,Acu-Link.com,2013-01-01 16:30:00,
2013-01-01 11:46:00,36.0,28.9,29.91,NW,315,2.7,-999.0,75,-99.99,,,0.03,Acu-Link.com,2013-01-01 16:46:00,
2013-01-01 12:01:00,35.8,26.6,29.89,NW,315,2.7,-999.0,69,-99.99,,,0.03,Acu-Link.com,2013-01-01 17:01:00,
2013-01-01 12:16:00,35.8,27.0,29.90,NNW,337,2.7,-999.0,70,-99.99,,,0.03,Acu-Link.com,2013-01-01 17:16:00,
2013-01-01 12:32:00,36.1,26.2,29.90,West,270,2.7,-999.0,67,-99.99,,,0.03,Acu-Link.com,2013-01-01 17:32:00,
2013-01-01 12:47:00,35.6,25.7,29.88,NNW,337,1.1,-999.0,67,-99.99,,,0.03,Acu-Link.com,2013-01-01 17:47:00,
2013-01-01 13:02:00,35.8,24.5,29.87,NNW,337,3.2,-999.0,63,-99.99,,,0.03,Acu-Link.com,2013-01-01 18:02:00,
2013-01-01 13:17:00,36.1,24.7,29.86,West,270,2.2,-999.0,63,-99.99,,,0.03,Acu-Link.com,2013-01-01 18:17:00,
2013-01-01 13:33:00,36.5,22.7,29.85,NNW,337,6.3,-999.0,57,-99.99,,,0.03,Acu-Link.com,2013-01-01 18:33:00,
2013-01-01 13:48:00,36.3,22.5,29.87,West,270,4.2,-999.0,57,-99.99,,,0.03,Acu-Link.com,2013-01-01 18:48:00,
2013-01-01 14:03:00,36.7,22.1,29.87,NNE,22,6.8,-999.0,55,-99.99,,,0.03,Acu-Link.com,2013-01-01 19:03:00,
2013-01-01 14:19:00,35.8,22.9,29.88,ENE,67,2.7,-999.0,59,-99.99,,,0.04,Acu-Link.com,2013-01-01 19:19:00,
2013-01-01 14:34:00,35.2,22.3,29.88,West,270,4.2,-999.0,59,-99.99,,,0.04,Acu-Link.com,2013-01-01 19:34:00,
2013-01-01 14:49:00,35.6,22.7,29.87,SSE,157,2.7,-999.0,59,-99.99,,,0.04,Acu-Link.com,2013-01-01 19:49:00,
2013-01-01 15:05:00,35.4,21.7,29.87,ESE,112,1.7,-999.0,57,-99.99,,,0.04,Acu-Link.com,2013-01-01 20:05:00,
2013-01-01 15:20:00,35.1,20.2,29.88,WNW,292,2.7,-999.0,54,-99.99,,,0.04,Acu-Link.com,2013-01-01 20:20:00,
2013-01-01 15:35:00,35.4,21.3,29.88,SE,135,2.2,-999.0,56,-99.99,,,0.04,Acu-Link.com,2013-01-01 20:35:00,
2013-01-01 15:50:00,34.5,21.3,29.88,North,0,2.2,-999.0,58,-99.99,,,0.04,Acu-Link.com,2013-01-01 20:50:00,
2013-01-01 16:06:00,33.6,20.4,29.89,SSE,157,2.2,-999.0,58,-99.99,,,0.04,Acu-Link.com,2013-01-01 21:06:00,
2013-01-01 16:21:00,32.9,20.2,29.91,ENE,67,1.1,-999.0,59,-99.99,,,0.04,Acu-Link.com,2013-01-01 21:21:00,
2013-01-01 16:36:00,32.4,20.1,29.91,ENE,67,1.1,-999.0,60,-99.99,,,0.04,Acu-Link.com,2013-01-01 21:36:00,
2013-01-01 16:52:00,31.6,18.9,29.91,ENE,67,0.0,-999.0,59,-99.99,,,0.04,Acu-Link.com,2013-01-01 21:52:00,
2013-01-01 17:07:00,31.3,19.4,29.93,ENE,67,0.0,-999.0,61,-99.99,,,0.04,Acu-Link.com,2013-01-01 22:07:00,
2013-01-01 17:22:00,30.9,19.1,29.93,ENE,67,0.0,-999.0,61,-99.99,,,0.04,Acu-Link.com,2013-01-01 22:22:00,
2013-01-01 17:38:00,30.4,18.6,29.93,ENE,67,2.2,-999.0,61,-99.99,,,0.04,Acu-Link.com,2013-01-01 22:38:00,
2013-01-01 17:53:00,29.8,17.6,29.94,WNW,292,1.7,-999.0,60,-99.99,,,0.04,Acu-Link.com,2013-01-01 22:53:00,
2013-01-01 18:08:00,29.1,17.4,29.95,WNW,292,1.7,-999.0,61,-99.99,,,0.04,Acu-Link.com,2013-01-01 23:08:00,
2013-01-01 18:24:00,28.6,16.9,29.95,WNW,292,2.2,-999.0,61,-99.99,,,0.04,Acu-Link.com,2013-01-01 23:24:00,
2013-01-01 18:39:00,28.2,16.5,29.95,WNW,292,0.0,-999.0,61,-99.99,,,0.04,Acu-Link.com,2013-01-01 23:39:00,
2013-01-01 18:54:00,27.7,16.4,29.95,WNW,292,1.1,-999.0,62,-99.99,,,0.04,Acu-Link.com,2013-01-01 23:54:00,
2013-01-01 19:10:00,27.5,16.2,29.95,WNW,292,1.7,-999.0,62,-99.99,,,0.04,Acu-Link.com,2013-01-02 00:10:00,
2013-01-01 19:25:00,27.5,15.5,29.95,WNW,292,1.1,-999.0,60,-99.99,,,0.04,Acu-Link.com,2013-01-02 00:25:00,
2013-01-01 19:40:00,27.5,15.5,29.96,WNW,292,0.0,-999.0,60,-99.99,,,0.04,Acu-Link.com,2013-01-02 00:40:00,
2013-01-01 19:56:00,27.1,15.5,29.96,WNW,292,0.0,-999.0,61,-99.99,,,0.04,Acu-Link.com,2013-01-02 00:56:00,
2013-01-01 20:11:00,26.6,15.0,29.96,WNW,292,0.0,-999.0,61,-99.99,,,0.04,Acu-Link.com,2013-01-02 01:11:00,
2013-01-01 20:26:00,26.1,14.9,29.96,WNW,292,0.0,-999.0,62,-99.99,,,0.04,Acu-Link.com,2013-01-02 01:26:00,
2013-01-01 20:41:00,25.5,14.7,29.96,WNW,292,0.0,-999.0,63,-99.99,,,0.04,Acu-Link.com,2013-01-02 01:41:00,
2013-01-01 20:57:00,25.2,14.8,29.96,WNW,292,0.0,-999.0,64,-99.99,,,0.04,Acu-Link.com,2013-01-02 01:57:00,
2013-01-01 21:12:00,25.0,15.3,29.96,WNW,292,0.0,-999.0,66,-99.99,,,0.04,Acu-Link.com,2013-01-02 02:12:00,
2013-01-01 21:27:00,25.0,15.6,29.97,WNW,292,0.0,-999.0,67,-99.99,,,0.04,Acu-Link.com,2013-01-02 02:27:00,
2013-01-01 21:43:00,25.0,15.6,29.98,WNW,292,0.0,-999.0,67,-99.99,,,0.04,Acu-Link.com,2013-01-02 02:43:00,
2013-01-01 21:58:00,25.2,15.8,29.97,WNW,292,0.0,-999.0,67,-99.99,,,0.04,Acu-Link.com,2013-01-02 02:58:00,
2013-01-01 22:13:00,25.3,15.6,29.97,WNW,292,0.0,-999.0,66,-99.99,,,0.04,Acu-Link.com,2013-01-02 03:13:00,
2013-01-01 22:29:00,25.3,15.6,29.97,WNW,292,0.0,-999.0,66,-99.99,,,0.04,Acu-Link.com,2013-01-02 03:29:00,
2013-01-01 22:44:00,25.3,15.9,29.98,WNW,292,0.0,-999.0,67,-99.99,,,0.04,Acu-Link.com,2013-01-02 03:44:00,
2013-01-01 22:59:00,25.3,16.6,29.98,WNW,292,0.0,-999.0,69,-99.99,,,0.04,Acu-Link.com,2013-01-02 03:59:00,
2013-01-01 23:15:00,25.3,16.6,29.98,WNW,292,0.0,-999.0,69,-99.99,,,0.04,Acu-Link.com,2013-01-02 04:15:00,
2013-01-01 23:30:00,25.2,15.8,29.98,WNW,292,0.0,-999.0,67,-99.99,,,0.04,Acu-Link.com,2013-01-02 04:30:00,
2013-01-01 23:45:00,25.0,15.6,29.99,WNW,292,0.0,-999.0,67,-99.99,,,0.04,Acu-Link.com,2013-01-02 04:45:00,